Weather reports worldwide

Advertisment
La Spezia-La Castellana, Italy (16129): temperature & dewpoint: 09.09.2019 10:00:00 - 15.09.2019 10:00:00 (CEST)La Spezia-La Castellana, Italy (16129): wind speed: 09.09.2019 10:00:00 - 15.09.2019 10:00:00 (CEST)La Spezia-La Castellana, Italy (16129): wind direction: 09.09.2019 10:00:00 - 15.09.2019 10:00:00 (CEST)
Date & Time tt [°C] td [°C] ff [km/h] ff [kn] dd
15.09.2019 10:00:00 - - - - -
15.09.2019 09:00:00 21,9 15,2 4 2 N
15.09.2019 08:00:00 20,8 15,0 8 4 NNW
15.09.2019 07:00:00 21,0 15,9 8 4 NNW
15.09.2019 06:00:00 21,5 16,2 8 4 WNW
15.09.2019 05:00:00 22,2 15,9 4 2 W
15.09.2019 04:00:00 22,0 15,3 8 4 N
15.09.2019 03:00:00 22,8 16,5 2 1 NNW
15.09.2019 02:00:00 23,8 15,7 4 2 N
15.09.2019 01:00:00 23,7 16,9 9 5 NNW
15.09.2019 00:00:00 23,6 17,5 15 8 N
14.09.2019 23:00:00 23,5 17,4 11 6 NNW
14.09.2019 22:00:00 23,5 16,9 9 5 N
14.09.2019 21:00:00 24,5 17,2 4 2 N
14.09.2019 20:00:00 24,9 14,3 8 4 WSW
14.09.2019 19:00:00 26,0 15,6 2 1 W
14.09.2019 18:00:00 27,1 17,2 15 8 SSW
14.09.2019 17:00:00 27,2 14,5 8 4 SW
14.09.2019 16:00:00 27,9 20,4 4 2 ENE
14.09.2019 15:00:00 26,8 19,9 2 1 W
14.09.2019 14:00:00 25,5 19,6 5 3 W
14.09.2019 13:00:00 25,5 19,8 4 2 ENE
14.09.2019 12:00:00 23,2 16,9 15 8 W
14.09.2019 11:00:00 24,2 15,9 5 3 WSW
14.09.2019 10:00:00 24,1 17,0 4 2 SSE
14.09.2019 09:00:00 23,1 15,3 2 1 W
14.09.2019 08:00:00 22,3 14,3 0 0 N
14.09.2019 07:00:00 22,0 15,0 5 3 WNW
14.09.2019 06:00:00 22,0 15,3 4 2 NW
14.09.2019 05:00:00 22,0 16,0 9 5 W
14.09.2019 04:00:00 22,3 16,0 11 6 NNW
14.09.2019 03:00:00 21,8 16,2 9 5 N
14.09.2019 02:00:00 22,3 16,3 15 8 N
14.09.2019 01:00:00 22,3 16,3 16 9 N
14.09.2019 00:00:00 22,6 16,5 15 8 N
13.09.2019 23:00:00 23,1 16,1 15 8 N
13.09.2019 22:00:00 23,9 15,1 8 4 NNW
13.09.2019 21:00:00 23,9 12,8 15 8 W
13.09.2019 20:00:00 24,3 14,0 15 8 W
13.09.2019 19:00:00 24,4 13,5 15 8 W
13.09.2019 18:00:00 25,7 14,4 9 5 W
13.09.2019 17:00:00 26,0 15,9 13 7 SSE
13.09.2019 16:00:00 25,7 16,2 15 8 WSW
13.09.2019 15:00:00 26,8 17,2 13 7 WSW
13.09.2019 14:00:00 26,7 16,6 4 2 S
13.09.2019 13:00:00 25,9 16,9 2 1 W
13.09.2019 12:00:00 24,1 13,8 5 3 N
13.09.2019 11:00:00 23,1 12,9 9 5 N
13.09.2019 10:00:00 22,6 12,5 4 2 N
13.09.2019 09:00:00 22,5 12,7 5 3 N
13.09.2019 08:00:00 22,0 12,5 9 5 NNW
13.09.2019 07:00:00 22,0 12,8 5 3 WNW
13.09.2019 06:00:00 22,3 11,9 5 3 WNW
13.09.2019 05:00:00 22,6 11,6 8 4 NNW
13.09.2019 04:00:00 22,2 12,7 11 6 NNW
13.09.2019 03:00:00 22,3 12,5 9 5 N
13.09.2019 02:00:00 22,0 13,5 9 5 NNW
13.09.2019 01:00:00 21,9 14,0 8 4 N
13.09.2019 00:00:00 22,2 14,7 13 7 N
12.09.2019 23:00:00 21,6 15,4 13 7 N
12.09.2019 22:00:00 21,8 16,5 9 5 N
12.09.2019 21:00:00 23,0 14,5 4 2 N
12.09.2019 20:00:00 23,1 14,8 4 2 NNW
12.09.2019 19:00:00 24,7 16,1 0 0 N
12.09.2019 18:00:00 25,7 15,6 8 4 WSW
12.09.2019 17:00:00 26,5 16,9 9 5 SW
12.09.2019 16:00:00 27,4 16,0 2 1 NE
12.09.2019 15:00:00 24,7 17,4 5 3 W
12.09.2019 14:00:00 23,5 15,7 11 6 N
12.09.2019 13:00:00 23,2 14,9 16 9 WSW
12.09.2019 12:00:00 23,1 16,8 13 7 SW
12.09.2019 11:00:00 22,3 15,1 5 3 SSW
12.09.2019 10:00:00 21,9 14,7 4 2 ESE
12.09.2019 09:00:00 20,6 12,8 9 5 NNE
12.09.2019 08:00:00 18,7 12,6 16 9 NNE
12.09.2019 07:00:00 18,5 12,7 22 12 N
12.09.2019 06:00:00 19,5 13,3 21 11 N
12.09.2019 05:00:00 19,8 14,1 16 9 N
12.09.2019 04:00:00 19,9 14,8 16 9 NNW
12.09.2019 03:00:00 20,4 15,1 15 8 NNW
12.09.2019 02:00:00 20,6 15,7 13 7 NNW
12.09.2019 01:00:00 20,3 15,6 13 7 NNW
12.09.2019 00:00:00 20,7 15,8 9 5 NNW
11.09.2019 23:00:00 20,8 15,3 8 4 NNW
11.09.2019 22:00:00 21,0 15,5 8 4 NNW
11.09.2019 21:00:00 21,1 15,3 8 4 NNW
11.09.2019 20:00:00 21,5 14,8 2 1 N
11.09.2019 19:00:00 21,7 14,7 8 4 W
11.09.2019 18:00:00 22,3 15,3 11 6 W
11.09.2019 17:00:00 22,3 14,6 18 10 WSW
11.09.2019 16:00:00 23,1 15,6 16 9 SW
11.09.2019 15:00:00 22,9 16,6 11 6 WSW
11.09.2019 14:00:00 21,8 17,1 11 6 W
11.09.2019 13:00:00 21,7 17,2 15 8 WSW
11.09.2019 12:00:00 22,7 17,8 5 3 SW
11.09.2019 11:00:00 19,9 14,4 8 4 N
11.09.2019 10:00:00 19,1 13,8 13 7 N
11.09.2019 09:00:00 18,3 13,1 18 10 N
11.09.2019 08:00:00 18,1 12,9 21 11 N
11.09.2019 07:00:00 17,8 12,8 24 13 N
11.09.2019 06:00:00 18,2 12,8 22 12 N
11.09.2019 05:00:00 18,3 12,7 24 13 N
11.09.2019 04:00:00 18,2 12,8 24 13 N
11.09.2019 03:00:00 18,4 12,8 24 13 N
11.09.2019 02:00:00 18,4 12,8 26 14 N
11.09.2019 01:00:00 18,3 12,2 24 13 N
11.09.2019 00:00:00 18,3 11,8 28 15 N
10.09.2019 23:00:00 18,4 11,7 28 15 N
10.09.2019 22:00:00 18,6 11,6 26 14 N
10.09.2019 21:00:00 18,7 11,7 22 12 N
10.09.2019 20:00:00 19,3 13,2 21 11 N
10.09.2019 19:00:00 19,6 15,0 15 8 NNW
10.09.2019 18:00:00 21,1 14,9 8 4 NNW
10.09.2019 17:00:00 22,1 13,4 2 1 NE
10.09.2019 16:00:00 22,9 16,1 5 3 SE
10.09.2019 15:00:00 22,6 14,4 9 5 S
10.09.2019 14:00:00 21,4 16,5 8 4 SE
10.09.2019 13:00:00 19,4 15,0 8 4 ESE
10.09.2019 12:00:00 18,9 14,9 5 3 E
10.09.2019 11:00:00 18,2 14,4 4 2 NE
10.09.2019 10:00:00 17,4 14,6 4 2 ENE
10.09.2019 09:00:00 15,7 12,0 11 6 N
10.09.2019 08:00:00 14,8 12,5 15 8 NNW
10.09.2019 07:00:00 15,5 13,8 15 8 E
10.09.2019 06:00:00 15,7 13,8 15 8 E
10.09.2019 05:00:00 15,8 13,9 13 7 E
10.09.2019 04:00:00 15,2 13,2 5 3 N
10.09.2019 03:00:00 15,5 12,6 4 2 W
10.09.2019 02:00:00 16,0 14,1 9 5 ENE
10.09.2019 01:00:00 16,1 13,9 9 5 E
10.09.2019 00:00:00 16,2 13,2 18 10 ESE
09.09.2019 23:00:00 16,2 13,2 16 9 SSE
09.09.2019 22:00:00 16,1 13,3 15 8 SSE
09.09.2019 21:00:00 16,2 13,2 15 8 SSE
09.09.2019 20:00:00 16,8 13,6 16 9 SSE
09.09.2019 19:00:00 18,8 14,8 16 9 SSE
09.09.2019 18:00:00 20,0 14,7 13 7 SSE
09.09.2019 17:00:00 20,9 14,7 11 6 SSW
09.09.2019 16:00:00 21,6 14,9 18 10 S
09.09.2019 15:00:00 21,6 17,1 15 8 S
09.09.2019 14:00:00 21,2 15,9 21 11 S
09.09.2019 13:00:00 20,7 14,0 18 10 S
09.09.2019 12:00:00 20,2 14,5 5 3 NE
09.09.2019 11:00:00 17,9 12,1 4 2 ENE
09.09.2019 10:00:00 15,5 9,6 4 2 NW

tt = temperature
td = dewpoint
ff = wind speed
dd = wind direction

Next stations